createdAt,value
2022-10-17T05:11:20.394Z,87.95
2022-10-17T05:12:22.223Z,87.45
2022-10-17T05:13:24.015Z,87.93
2022-10-17T05:14:25.802Z,87.83
2022-10-17T05:15:27.688Z,87.73
2022-10-17T05:16:29.763Z,87.77
2022-10-17T05:17:31.612Z,88.27
2022-10-17T05:18:33.448Z,87.95
2022-10-17T05:19:35.217Z,88.16
2022-10-17T05:20:37.987Z,88.13
2022-10-17T05:21:39.857Z,88.04
2022-10-17T05:22:42.208Z,88.22
2022-10-17T05:23:44.202Z,87.70
2022-10-17T05:24:46.121Z,87.69
2022-10-17T05:25:47.943Z,87.50
2022-10-17T05:26:52.876Z,87.21
2022-10-17T05:27:54.709Z,87.18
2022-10-17T05:28:56.530Z,87.59
2022-10-17T05:29:58.341Z,87.11
2022-10-17T05:31:03.648Z,87.38
2022-10-17T05:32:06.733Z,87.26
2022-10-17T05:33:09.493Z,87.18
2022-10-17T05:34:13.196Z,86.67
2022-10-17T05:35:16.154Z,86.85
2022-10-17T05:36:18.076Z,87.04
2022-10-17T05:37:20.799Z,86.80
2022-10-17T05:38:22.606Z,86.45
2022-10-17T05:39:24.559Z,86.63
2022-10-17T05:40:26.321Z,86.52
2022-10-17T05:41:28.109Z,87.33
2022-10-17T05:42:30.108Z,87.11
2022-10-17T05:43:32.818Z,87.18
2022-10-17T05:44:34.570Z,87.02
2022-10-17T05:45:37.103Z,86.88
2022-10-17T05:46:38.931Z,87.23
2022-10-17T05:47:41.303Z,86.84
2022-10-17T05:48:43.052Z,86.80
2022-10-17T05:49:50.029Z,87.59
2022-10-17T05:51:01.140Z,87.33
2022-10-17T05:52:02.970Z,87.12
2022-10-17T05:53:05.812Z,86.51
2022-10-17T05:54:07.764Z,86.51
2022-10-17T05:55:09.775Z,86.81
2022-10-17T05:56:12.736Z,87.21
2022-10-17T05:57:14.567Z,86.85
2022-10-17T05:58:22.133Z,87.20
2022-10-17T05:59:28.898Z,87.18
2022-10-17T06:00:30.674Z,87.04
2022-10-17T06:01:32.568Z,86.86
2022-10-17T06:02:34.561Z,86.55
2022-10-17T06:03:36.342Z,86.55
2022-10-17T06:04:38.249Z,86.38
2022-10-17T06:05:40.026Z,86.71
2022-10-17T06:06:41.820Z,86.86
2022-10-17T06:07:43.846Z,86.56
2022-10-17T06:08:46.245Z,86.97
2022-10-17T06:09:48.053Z,86.96
2022-10-17T06:10:51.007Z,86.67
2022-10-17T06:11:52.862Z,86.63
2022-10-17T06:12:57.962Z,86.12
2022-10-17T06:13:59.871Z,86.58
2022-10-17T06:15:01.644Z,86.76
2022-10-17T06:16:03.560Z,86.51
2022-10-17T06:17:05.381Z,86.65
2022-10-17T06:18:07.136Z,86.86
2022-10-17T06:19:08.971Z,86.37
2022-10-17T06:20:10.889Z,86.55
2022-10-17T06:21:15.453Z,86.07
2022-10-17T06:22:17.373Z,86.47
2022-10-17T06:23:19.218Z,86.50
2022-10-17T06:24:21.102Z,86.29
2022-10-17T06:25:22.829Z,86.26
2022-10-17T06:26:24.594Z,86.24
2022-10-17T06:27:27.165Z,86.45
2022-10-17T06:28:29.306Z,86.08
2022-10-17T06:29:31.188Z,86.35
2022-10-17T06:30:33.025Z,86.03
2022-10-17T06:31:34.962Z,86.16
2022-10-17T06:32:36.747Z,86.28
2022-10-17T06:33:39.232Z,86.56
2022-10-17T06:34:44.436Z,86.24
2022-10-17T06:35:50.932Z,86.30
2022-10-17T06:36:53.379Z,86.18
2022-10-17T06:37:55.186Z,86.02
2022-10-17T06:38:57.081Z,86.20
2022-10-17T06:39:59.095Z,86.37
2022-10-17T06:41:09.113Z,86.32
2022-10-17T06:42:10.936Z,86.09
2022-10-17T06:43:12.842Z,86.21
2022-10-17T06:44:14.740Z,86.15
2022-10-17T06:45:16.480Z,85.84
2022-10-17T06:46:19.123Z,86.05
2022-10-17T06:47:20.986Z,86.14
2022-10-17T06:48:22.758Z,85.77
2022-10-17T06:49:24.701Z,86.43
2022-10-17T06:50:26.603Z,86.17
2022-10-17T06:51:28.401Z,86.24
2022-10-17T06:52:30.296Z,86.54
2022-10-17T06:53:33.519Z,86.08
2022-10-17T06:54:35.576Z,86.28
2022-10-17T06:55:37.328Z,86.02
2022-10-17T06:56:39.119Z,86.32
2022-10-17T06:57:40.949Z,86.35
2022-10-17T06:58:42.872Z,86.19
2022-10-17T06:59:44.689Z,86.21
2022-10-17T07:00:46.617Z,86.14
2022-10-17T07:01:48.481Z,85.95
2022-10-17T07:02:50.328Z,85.93
2022-10-17T07:03:52.620Z,85.95
2022-10-17T07:04:54.451Z,85.89
2022-10-17T07:05:56.435Z,86.05
2022-10-17T07:08:05.707Z,85.91
2022-10-17T07:09:07.620Z,85.68
2022-10-17T07:10:09.596Z,85.76
2022-10-17T07:11:13.593Z,86.07
2022-10-17T07:12:15.368Z,85.71
2022-10-17T07:13:17.644Z,85.67
2022-10-17T07:14:19.387Z,85.67
2022-10-17T07:15:21.225Z,85.48
2022-10-17T07:16:23.305Z,85.39
2022-10-17T07:17:25.336Z,85.64
2022-10-17T07:18:27.066Z,85.76
2022-10-17T07:19:28.858Z,85.78
2022-10-17T07:20:30.764Z,86.30
2022-10-17T07:21:36.560Z,85.78
2022-10-17T07:22:40.900Z,86.03
2022-10-17T07:23:42.768Z,85.82
2022-10-17T07:24:44.607Z,86.10
2022-10-17T07:25:46.438Z,85.61
2022-10-17T07:26:48.243Z,85.66
2022-10-17T07:27:50.447Z,85.56
2022-10-17T07:28:53.523Z,85.55
2022-10-17T07:29:55.390Z,84.99
2022-10-17T07:30:57.179Z,85.45
2022-10-17T07:31:58.967Z,85.39
2022-10-17T07:33:00.766Z,85.18
2022-10-17T07:34:02.817Z,85.30
2022-10-17T07:35:04.707Z,84.95
2022-10-17T07:36:07.146Z,84.70
2022-10-17T07:37:10.405Z,84.72
2022-10-17T07:38:12.176Z,84.37
2022-10-17T07:39:14.039Z,84.12
2022-10-17T07:40:15.884Z,84.07
2022-10-17T07:41:21.802Z,83.85
2022-10-17T07:42:23.961Z,83.50
2022-10-17T07:43:26.767Z,83.19
2022-10-17T07:44:28.575Z,83.50
2022-10-17T07:45:30.477Z,83.16
2022-10-17T07:46:32.414Z,83.27
2022-10-17T07:47:36.156Z,83.18
2022-10-17T07:48:39.385Z,82.49
2022-10-17T07:49:42.956Z,82.08
2022-10-17T07:50:44.749Z,81.63
2022-10-17T07:51:48.091Z,80.96
2022-10-17T07:52:49.884Z,81.10
2022-10-17T07:53:51.674Z,80.58
2022-10-17T07:54:53.444Z,79.30
2022-10-17T07:55:55.190Z,79.42
2022-10-17T07:56:57.046Z,79.21
2022-10-17T07:58:00.763Z,79.22
2022-10-17T07:59:05.244Z,79.78
2022-10-17T08:00:10.417Z,78.95
2022-10-17T08:01:15.819Z,79.88
2022-10-17T08:02:23.079Z,79.76
2022-10-17T08:03:24.777Z,79.54
2022-10-17T08:04:26.759Z,79.15
2022-10-17T08:05:29.449Z,78.92
2022-10-17T08:06:31.328Z,79.04
2022-10-17T08:07:33.281Z,79.25
2022-10-17T08:08:35.112Z,79.37
2022-10-17T08:09:36.947Z,79.02
2022-10-17T08:10:38.995Z,78.92
2022-10-17T08:11:40.802Z,78.19
2022-10-17T08:12:45.730Z,78.45
2022-10-17T08:13:47.509Z,78.92
2022-10-17T08:14:49.272Z,79.14
2022-10-17T08:15:51.151Z,78.79
2022-10-17T08:16:54.463Z,78.97
2022-10-17T08:17:56.288Z,78.90
2022-10-17T08:18:58.135Z,78.22
2022-10-17T08:19:59.940Z,78.40
2022-10-17T08:21:02.914Z,78.42
2022-10-17T08:22:04.730Z,77.86
2022-10-17T08:23:07.071Z,76.97
2022-10-17T08:24:08.831Z,77.46
2022-10-17T08:25:11.040Z,77.52
2022-10-17T08:26:13.763Z,77.53
2022-10-17T08:27:15.629Z,77.54
2022-10-17T08:28:17.360Z,77.36
2022-10-17T08:29:19.431Z,76.60
2022-10-17T08:30:21.319Z,77.22
2022-10-17T08:31:23.711Z,77.36
2022-10-17T08:32:27.079Z,77.25
2022-10-17T08:33:28.988Z,77.08
2022-10-17T08:34:30.794Z,77.16
2022-10-17T08:35:32.658Z,76.39
2022-10-17T08:36:34.664Z,76.54
2022-10-17T08:37:36.635Z,75.80
2022-10-17T08:38:43.061Z,76.49
2022-10-17T08:39:45.680Z,77.11
2022-10-17T08:40:49.230Z,75.57
2022-10-17T08:42:09.129Z,75.98
2022-10-17T08:43:10.998Z,75.67
2022-10-17T08:44:12.823Z,76.09
2022-10-17T08:45:33.245Z,76.50
2022-10-17T08:46:37.600Z,76.69
2022-10-17T08:47:41.560Z,76.01
2022-10-17T08:48:46.608Z,75.82
2022-10-17T08:49:52.799Z,75.31
2022-10-17T08:50:58.233Z,75.91
2022-10-17T08:52:03.379Z,76.76
2022-10-17T08:53:15.649Z,76.61
2022-10-17T08:54:20.675Z,77.05
2022-10-17T08:55:34.392Z,76.29
2022-10-17T08:56:48.472Z,75.54
2022-10-17T08:57:50.897Z,75.80
2022-10-17T08:58:53.282Z,75.75
2022-10-17T08:59:55.298Z,75.35
2022-10-17T09:00:57.037Z,75.31
2022-10-17T09:02:16.503Z,75.57
2022-10-17T09:03:18.366Z,74.93
2022-10-17T09:04:20.201Z,74.94
2022-10-17T09:05:27.588Z,75.21
2022-10-17T09:06:33.400Z,75.25
2022-10-17T09:07:43.879Z,73.75
2022-10-17T09:08:58.280Z,73.78
2022-10-17T09:10:20.843Z,73.30
2022-10-17T09:11:28.402Z,73.67
2022-10-17T09:12:33.332Z,74.07
2022-10-17T09:13:42.507Z,72.54
2022-10-17T09:14:53.330Z,72.81
2022-10-17T09:15:58.053Z,73.20
2022-10-17T09:16:59.780Z,72.84
2022-10-17T09:18:03.783Z,72.91
2022-10-17T09:19:11.336Z,72.92
2022-10-17T09:20:16.755Z,73.78
2022-10-17T09:21:25.616Z,73.37
2022-10-17T09:22:30.632Z,72.45
2022-10-17T09:23:42.487Z,73.63
2022-10-17T09:24:59.745Z,75.66
2022-10-17T09:26:01.949Z,75.82
2022-10-17T09:27:03.997Z,75.07
2022-10-17T09:28:24.571Z,73.11
2022-10-17T09:29:32.374Z,72.54
2022-10-17T09:30:45.493Z,70.88
2022-10-17T09:31:51.649Z,70.66
2022-10-17T09:32:54.002Z,71.30
2022-10-17T09:33:57.342Z,72.61
2022-10-17T09:34:59.199Z,72.26
2022-10-17T09:36:02.451Z,69.62
2022-10-17T09:37:08.006Z,70.90
2022-10-17T09:38:18.128Z,72.02
2022-10-17T09:39:23.217Z,72.57
2022-10-17T09:40:27.076Z,72.44
2022-10-17T09:41:45.003Z,72.22
2022-10-17T09:42:49.836Z,71.70
2022-10-17T09:43:54.697Z,71.74
2022-10-17T09:45:05.335Z,70.93
2022-10-17T09:46:25.477Z,70.18
2022-10-17T09:47:30.410Z,69.04
2022-10-17T09:48:35.200Z,69.44
2022-10-17T09:49:39.040Z,68.71
2022-10-17T09:50:41.993Z,69.09
2022-10-17T09:51:43.996Z,69.50
2022-10-17T09:52:50.533Z,69.02
2022-10-17T09:53:56.309Z,69.32
2022-10-17T09:55:02.296Z,70.56
2022-10-17T09:56:08.264Z,70.75
2022-10-17T09:57:11.439Z,69.40
2022-10-17T09:58:13.331Z,70.62
2022-10-17T09:59:30.016Z,70.88
2022-10-17T10:00:39.924Z,70.79
2022-10-17T10:01:42.306Z,69.14
2022-10-17T10:02:44.108Z,69.29
2022-10-17T10:03:46.417Z,70.54
2022-10-17T10:05:04.601Z,73.22
2022-10-17T10:06:13.232Z,72.67
2022-10-17T10:07:15.108Z,72.03
2022-10-17T10:08:18.454Z,71.71
2022-10-17T10:09:24.837Z,71.65
2022-10-17T10:10:28.177Z,71.82
2022-10-17T10:11:49.064Z,71.70
2022-10-17T10:13:23.140Z,71.59
2022-10-17T10:14:30.005Z,71.23
2022-10-17T10:15:34.135Z,69.47
2022-10-17T10:16:41.690Z,69.26
2022-10-17T10:17:43.561Z,70.19
2022-10-17T10:18:47.485Z,70.75
2022-10-17T10:19:52.549Z,70.35
2022-10-17T10:21:08.108Z,70.36
2022-10-17T10:22:17.303Z,71.31
2022-10-17T10:23:21.612Z,71.15
2022-10-17T10:24:29.623Z,71.21
2022-10-17T10:25:33.286Z,70.18
2022-10-17T10:26:38.860Z,69.69
2022-10-17T10:27:41.975Z,70.15
2022-10-17T10:28:51.102Z,67.03
2022-10-17T10:29:53.499Z,68.03
2022-10-17T10:30:56.540Z,69.47
2022-10-17T10:32:16.542Z,68.89
2022-10-17T10:33:20.327Z,67.88
2022-10-17T10:34:22.086Z,67.92
2022-10-17T10:35:23.838Z,67.28
2022-10-17T10:36:25.737Z,67.74
2022-10-17T10:37:27.502Z,66.93
2022-10-17T10:38:30.576Z,67.50
2022-10-17T10:39:32.597Z,67.00
2022-10-17T10:40:57.512Z,66.59
2022-10-17T10:42:00.839Z,67.30
2022-10-17T10:43:05.309Z,66.69
2022-10-17T10:44:14.662Z,65.59
2022-10-17T10:45:56.958Z,65.77
2022-10-17T10:46:48.985Z,63.33
2022-10-17T10:47:57.055Z,66.13
2022-10-17T10:49:00.536Z,64.91
2022-10-17T10:50:17.789Z,66.37
2022-10-17T10:51:23.410Z,68.37
2022-10-17T10:52:32.900Z,70.06
2022-10-17T10:53:37.544Z,66.59
2022-10-17T10:54:42.694Z,64.89
2022-10-17T10:55:48.393Z,66.75
2022-10-17T10:56:53.582Z,65.34
2022-10-17T10:57:58.565Z,64.91
2022-10-17T10:59:09.390Z,65.81
2022-10-17T11:00:16.661Z,64.44
2022-10-17T11:01:27.995Z,62.50
2022-10-17T11:02:43.437Z,63.68
2022-10-17T11:03:48.025Z,63.61
2022-10-17T11:04:58.904Z,63.81
2022-10-17T11:06:20.977Z,64.38
2022-10-17T11:07:39.301Z,64.69
2022-10-17T11:08:41.095Z,65.03
2022-10-17T11:09:45.797Z,63.86
2022-10-17T11:10:59.620Z,64.04
2022-10-17T11:12:12.376Z,63.92
2022-10-17T11:13:16.851Z,63.93
2022-10-17T11:14:21.474Z,62.71
2022-10-17T11:15:30.534Z,63.66
2022-10-17T11:16:32.888Z,64.12
2022-10-17T11:17:36.814Z,64.25
2022-10-17T11:18:41.381Z,61.77
2022-10-17T11:19:45.803Z,62.20
2022-10-17T11:21:00.621Z,63.46
2022-10-17T11:22:11.787Z,63.43
2022-10-17T11:23:21.861Z,61.55
2022-10-17T11:24:33.344Z,62.02
2022-10-17T11:25:36.649Z,62.20
2022-10-17T11:26:45.390Z,63.41
2022-10-17T11:27:47.210Z,63.01
2022-10-17T11:28:49.194Z,62.64
2022-10-17T11:29:51.454Z,62.34
2022-10-17T11:31:13.184Z,62.03
2022-10-17T11:32:17.718Z,61.51
2022-10-17T11:33:42.699Z,61.59
2022-10-17T11:34:46.943Z,60.83
2022-10-17T11:35:52.127Z,62.12
2022-10-17T11:37:02.916Z,62.54
2022-10-17T11:38:23.179Z,59.13
2022-10-17T11:39:42.477Z,59.11
2022-10-17T11:40:46.267Z,59.59
2022-10-17T11:42:03.511Z,59.46
2022-10-17T11:43:12.342Z,60.55
2022-10-17T11:44:28.027Z,58.73
2022-10-17T11:45:33.986Z,59.06
2022-10-17T11:46:36.643Z,57.26
2022-10-17T11:47:46.603Z,57.25
2022-10-17T11:48:48.524Z,56.15
2022-10-17T11:49:56.534Z,57.63
2022-10-17T11:52:59.808Z,56.87
2022-10-17T11:54:30.961Z,56.13
2022-10-17T11:55:34.533Z,55.59
2022-10-17T11:56:45.195Z,54.45
2022-10-17T11:57:55.371Z,52.52
2022-10-17T11:59:03.166Z,52.43
2022-10-17T12:00:10.960Z,54.48
2022-10-17T12:01:18.423Z,55.19
2022-10-17T12:02:29.425Z,47.43
2022-10-17T12:03:50.791Z,51.29
2022-10-17T12:05:07.232Z,47.81
2022-10-17T12:06:14.722Z,51.77
2022-10-17T12:07:27.578Z,52.66
2022-10-17T12:08:32.548Z,54.69
2022-10-17T12:09:53.599Z,52.34
2022-10-17T12:11:02.396Z,50.27
2022-10-17T12:12:04.519Z,50.58
2022-10-17T12:13:24.957Z,52.44
2022-10-17T12:14:35.380Z,48.35
2022-10-17T12:15:37.201Z,47.42
2022-10-17T12:16:43.314Z,49.81
2022-10-17T12:17:46.266Z,51.78
2022-10-17T12:19:10.840Z,52.39
2022-10-17T12:20:21.741Z,48.25
2022-10-17T12:21:25.540Z,51.80
2022-10-17T12:22:30.274Z,50.17
2022-10-17T12:23:32.569Z,50.64
2022-10-17T12:24:39.573Z,45.95
2022-10-17T12:25:57.132Z,45.59
2022-10-17T12:27:21.843Z,48.09
2022-10-17T12:28:39.451Z,48.50
2022-10-17T12:29:41.841Z,43.90
2022-10-17T12:30:55.826Z,46.22
2022-10-17T12:32:10.678Z,50.21
2022-10-17T12:33:12.506Z,47.27
2022-10-17T12:34:18.132Z,48.81
2022-10-17T12:35:21.776Z,49.58
2022-10-17T12:36:23.531Z,46.63
2022-10-17T12:37:43.713Z,46.03
2022-10-17T12:38:50.000Z,46.04
2022-10-17T12:39:52.193Z,46.90
2022-10-17T12:40:55.616Z,42.35
2022-10-17T12:41:57.395Z,43.48
2022-10-17T12:42:59.290Z,46.66
2022-10-17T12:44:01.149Z,47.39
2022-10-17T12:45:03.010Z,47.56
2022-10-17T12:46:05.313Z,47.21
2022-10-17T12:47:09.939Z,48.40
2022-10-17T12:48:11.940Z,46.95
2022-10-17T12:49:22.888Z,46.16
2022-10-17T12:50:54.073Z,45.32
2022-10-17T12:52:14.300Z,43.13
2022-10-17T12:53:19.260Z,42.46
2022-10-17T12:54:22.130Z,44.23
2022-10-17T12:55:25.374Z,46.03
2022-10-17T12:56:32.067Z,47.77
2022-10-17T12:57:36.363Z,48.12
2022-10-17T12:58:43.419Z,48.86
2022-10-17T12:59:45.521Z,49.47
2022-10-17T13:02:22.291Z,49.82
2022-10-17T13:03:26.681Z,48.64
2022-10-17T13:04:30.043Z,46.47
2022-10-17T13:05:34.522Z,48.68
2022-10-17T13:06:40.596Z,49.16
2022-10-17T13:07:44.445Z,48.31
2022-10-17T13:08:53.526Z,46.91
2022-10-17T13:09:56.739Z,46.19
2022-10-17T13:10:58.894Z,45.98
2022-10-17T13:12:03.732Z,44.77
2022-10-17T13:13:08.588Z,45.62
2022-10-17T13:14:14.695Z,47.98
2022-10-17T13:15:18.091Z,49.34
2022-10-17T13:16:36.381Z,50.60
2022-10-17T13:17:40.689Z,49.68
2022-10-17T13:18:52.516Z,50.23
2022-10-17T13:19:54.794Z,50.02
2022-10-17T13:20:58.130Z,49.97
2022-10-17T13:22:06.519Z,50.00
2022-10-17T13:23:22.423Z,50.84
2022-10-17T13:24:30.180Z,50.95
2022-10-17T13:25:31.994Z,51.39
2022-10-17T13:26:33.913Z,51.00
2022-10-17T13:27:36.197Z,51.62
2022-10-17T13:28:39.582Z,51.60
2022-10-17T13:29:44.637Z,52.45
2022-10-17T13:30:49.361Z,52.53
2022-10-17T13:31:54.565Z,51.20
2022-10-17T13:32:56.943Z,49.56
2022-10-17T13:34:00.140Z,51.56
2022-10-17T13:35:07.352Z,49.21
2022-10-17T13:36:15.943Z,50.30
2022-10-17T13:37:25.327Z,49.58
2022-10-17T13:38:28.944Z,51.33
2022-10-17T13:40:02.951Z,51.21
2022-10-17T13:41:29.961Z,49.60
2022-10-17T13:42:28.118Z,50.88
2022-10-17T13:43:31.442Z,49.51
2022-10-17T13:44:34.725Z,49.86
2022-10-17T13:45:38.149Z,51.27
2022-10-17T13:46:40.307Z,49.55
2022-10-17T13:47:42.247Z,50.22
2022-10-17T13:48:44.156Z,51.16
2022-10-17T13:49:45.908Z,50.15
2022-10-17T13:50:50.470Z,50.61
2022-10-17T13:51:53.462Z,50.26
2022-10-17T13:53:07.443Z,49.38
2022-10-17T13:54:19.370Z,51.12
2022-10-17T13:55:22.340Z,49.84
2022-10-17T13:56:28.854Z,51.09
2022-10-17T13:57:32.197Z,51.37
2022-10-17T13:58:42.518Z,50.65
2022-10-17T13:59:47.877Z,49.56
2022-10-17T14:00:52.805Z,51.80
2022-10-17T14:01:56.172Z,51.95
2022-10-17T14:02:58.006Z,51.50
2022-10-17T14:04:09.404Z,52.13
2022-10-17T14:05:18.549Z,51.49
2022-10-17T14:06:22.722Z,50.65
2022-10-17T14:09:23.814Z,50.25
2022-10-17T14:10:27.437Z,50.70
2022-10-17T14:11:29.379Z,50.69
2022-10-17T14:12:31.189Z,50.85
2022-10-17T14:13:34.357Z,51.08
2022-10-17T14:14:57.956Z,51.88
2022-10-17T14:16:00.469Z,50.69
2022-10-17T14:17:02.430Z,50.55
2022-10-17T14:18:08.356Z,50.38
2022-10-17T14:19:24.817Z,50.90
2022-10-17T14:21:53.765Z,50.31
2022-10-17T14:23:21.996Z,50.86
2022-10-17T14:24:23.833Z,51.01
2022-10-17T14:25:28.796Z,50.33
2022-10-17T14:26:30.648Z,50.36
2022-10-17T14:27:32.811Z,51.73
2022-10-17T14:28:35.641Z,51.58
2022-10-17T14:29:53.420Z,52.98
2022-10-17T14:30:57.482Z,52.23
2022-10-17T14:31:59.575Z,51.99
2022-10-17T14:33:03.748Z,53.11
2022-10-17T14:34:06.038Z,53.09
2022-10-17T14:35:37.366Z,53.29
2022-10-17T14:36:40.362Z,54.01
2022-10-17T14:37:47.936Z,54.39
2022-10-17T14:38:52.476Z,54.00
2022-10-17T14:39:55.575Z,55.08
2022-10-17T14:41:23.562Z,55.43
2022-10-17T14:42:24.189Z,56.30
2022-10-17T14:43:28.631Z,56.64
2022-10-17T14:44:32.130Z,56.93
2022-10-17T14:45:35.409Z,56.48
2022-10-17T14:46:39.129Z,56.90
2022-10-17T14:47:43.994Z,57.52
2022-10-17T14:48:47.976Z,57.55
2022-10-17T14:49:51.266Z,57.60
2022-10-17T14:51:11.473Z,58.07
2022-10-17T14:52:18.286Z,58.54
2022-10-17T14:53:21.856Z,58.90
2022-10-17T14:54:26.252Z,58.66
2022-10-17T14:55:29.000Z,59.44
2022-10-17T14:56:41.477Z,59.27
2022-10-17T14:57:44.813Z,59.69
2022-10-17T14:58:46.630Z,59.76
2022-10-17T14:59:55.906Z,60.00
2022-10-17T15:00:58.378Z,60.00
2022-10-17T15:02:00.155Z,60.23
2022-10-17T15:03:02.037Z,60.03
2022-10-17T15:04:04.099Z,60.06
2022-10-17T15:05:09.497Z,60.54
2022-10-17T15:06:44.001Z,61.53
2022-10-17T15:07:46.423Z,61.83
2022-10-17T15:08:48.270Z,62.32
2022-10-17T15:09:50.809Z,62.01
2022-10-17T15:10:53.089Z,61.46
2022-10-17T15:12:01.093Z,61.99
2022-10-17T15:13:26.706Z,62.37
2022-10-17T15:14:25.600Z,62.70
2022-10-17T15:15:31.473Z,62.70
2022-10-17T15:16:34.478Z,63.10
2022-10-17T15:17:36.361Z,62.89
2022-10-17T15:18:38.319Z,63.35
2022-10-17T15:19:40.115Z,63.00
2022-10-17T15:20:42.003Z,63.31
2022-10-17T15:21:47.188Z,63.10
2022-10-17T15:22:49.622Z,63.56
2022-10-17T15:23:51.965Z,63.54
2022-10-17T15:24:53.806Z,63.47
2022-10-17T15:25:55.583Z,63.64
2022-10-17T15:26:57.461Z,64.07
2022-10-17T15:27:59.352Z,64.16
2022-10-17T15:29:01.752Z,64.55
2022-10-17T15:30:03.883Z,64.87
2022-10-17T15:31:05.858Z,65.28
2022-10-17T15:32:07.689Z,64.78
2022-10-17T15:33:09.558Z,65.04
2022-10-17T15:34:11.430Z,65.08
2022-10-17T15:35:13.313Z,65.38
2022-10-17T15:36:28.401Z,65.65
2022-10-17T15:37:33.677Z,65.66
2022-10-17T15:38:35.486Z,66.13
2022-10-17T15:39:37.325Z,65.95
2022-10-17T15:40:41.769Z,65.68
2022-10-17T15:41:44.564Z,65.96
2022-10-17T15:42:46.515Z,65.98
2022-10-17T15:43:48.953Z,66.33
2022-10-17T15:44:50.910Z,66.34
2022-10-17T15:45:52.912Z,66.55
2022-10-17T15:46:56.026Z,66.78
2022-10-17T15:48:00.838Z,67.88
2022-10-17T15:49:04.310Z,67.56
2022-10-17T15:50:06.943Z,67.31
2022-10-17T15:51:09.323Z,67.75
2022-10-17T15:52:11.204Z,67.69
2022-10-17T15:53:13.152Z,67.68
2022-10-17T15:54:15.049Z,67.47
2022-10-17T15:55:17.474Z,67.59
2022-10-17T15:56:22.359Z,67.60
2022-10-17T15:57:28.889Z,67.68
2022-10-17T15:58:36.062Z,67.62
2022-10-17T15:59:37.927Z,67.77
2022-10-17T16:00:39.781Z,67.86
2022-10-17T16:01:42.137Z,68.20
2022-10-17T16:02:44.341Z,68.11
2022-10-17T16:03:47.870Z,69.11
2022-10-17T16:04:50.368Z,68.82
2022-10-17T16:05:52.243Z,68.52
2022-10-17T16:06:54.195Z,68.60
2022-10-17T16:07:56.284Z,68.71
2022-10-17T16:08:58.172Z,69.35
2022-10-17T16:09:59.979Z,69.15
2022-10-17T16:11:01.837Z,69.06
2022-10-17T16:12:05.375Z,68.99
2022-10-17T16:13:07.131Z,68.92
2022-10-17T16:14:13.368Z,68.89
2022-10-17T16:15:16.912Z,69.61
2022-10-17T16:16:18.817Z,70.11
2022-10-17T16:17:20.603Z,69.78
2022-10-17T16:18:22.458Z,69.69
2022-10-17T16:19:24.373Z,69.59
2022-10-17T16:20:26.212Z,69.67
2022-10-17T16:22:40.923Z,69.63
2022-10-17T16:23:42.950Z,69.70
2022-10-17T16:24:44.905Z,69.50
2022-10-17T16:25:46.790Z,69.69
2022-10-17T16:26:48.671Z,69.61
2022-10-17T16:27:51.759Z,69.70
2022-10-17T16:28:53.673Z,69.94
2022-10-17T16:29:55.598Z,70.21
2022-10-17T16:30:57.930Z,70.64
2022-10-17T16:31:59.769Z,71.28
2022-10-17T16:33:01.537Z,71.75
2022-10-17T16:34:04.117Z,71.37
2022-10-17T16:35:06.606Z,71.47
2022-10-17T16:36:08.437Z,71.53
2022-10-17T16:37:10.335Z,71.44
2022-10-17T16:38:12.172Z,71.78
2022-10-17T16:39:14.026Z,71.54
2022-10-17T16:40:16.318Z,71.52
2022-10-17T16:41:18.099Z,72.15
2022-10-17T16:42:22.983Z,71.91
2022-10-17T16:43:24.814Z,71.77
2022-10-17T16:44:26.685Z,72.03
2022-10-17T16:45:28.641Z,72.28
2022-10-17T16:46:31.447Z,72.60
2022-10-17T16:47:33.277Z,72.19
2022-10-17T16:48:35.166Z,72.28
2022-10-17T16:49:40.364Z,72.42
2022-10-17T16:50:44.782Z,72.07
2022-10-17T16:51:46.527Z,72.16
2022-10-17T16:52:48.349Z,72.42
2022-10-17T16:53:51.198Z,72.59
2022-10-17T16:54:53.766Z,72.53
2022-10-17T16:56:02.178Z,72.44
2022-10-17T16:57:04.209Z,72.35
2022-10-17T16:58:06.061Z,72.80
2022-10-17T16:59:08.095Z,72.49
2022-10-17T17:00:12.621Z,72.47
2022-10-17T17:01:16.316Z,72.48
2022-10-17T17:02:21.190Z,72.50
2022-10-17T17:03:23.405Z,72.63
2022-10-17T17:04:25.299Z,72.76
2022-10-17T17:05:27.309Z,72.63
2022-10-17T17:06:30.040Z,72.77
2022-10-17T17:07:32.640Z,72.98
2022-10-17T17:08:37.481Z,73.69
2022-10-17T17:09:40.005Z,73.43
2022-10-17T17:10:46.326Z,73.52
2022-10-17T17:11:48.189Z,73.10
2022-10-17T17:12:50.083Z,73.15
2022-10-17T17:13:52.636Z,73.75
2022-10-17T17:14:54.563Z,73.91
2022-10-17T17:16:07.145Z,74.07
2022-10-17T17:17:15.408Z,73.81
2022-10-17T17:18:26.978Z,74.29
2022-10-17T17:19:30.150Z,74.11
2022-10-17T17:20:33.019Z,73.81
2022-10-17T17:21:35.141Z,74.12
2022-10-17T17:22:37.409Z,74.44
2022-10-17T17:23:40.772Z,74.74
2022-10-17T17:24:43.017Z,74.29
2022-10-17T17:25:46.099Z,74.33
2022-10-17T17:26:53.031Z,74.36
2022-10-17T17:27:55.089Z,74.14
2022-10-17T17:28:58.847Z,74.19
2022-10-17T17:30:00.883Z,74.16
2022-10-17T17:31:06.197Z,74.11
2022-10-17T17:32:08.422Z,74.27
2022-10-17T17:33:11.799Z,74.21
2022-10-17T17:34:17.176Z,74.61
2022-10-17T17:35:21.524Z,74.50
2022-10-17T17:36:25.171Z,74.30
2022-10-17T17:37:27.744Z,74.46
2022-10-17T17:38:31.150Z,74.42
2022-10-17T17:39:34.071Z,74.43
2022-10-17T17:40:36.285Z,74.50
2022-10-17T17:41:38.917Z,74.47
2022-10-17T17:42:40.908Z,74.52
2022-10-17T17:43:43.462Z,74.61
2022-10-17T17:44:45.462Z,75.03
2022-10-17T17:45:47.703Z,75.24
2022-10-17T17:46:49.664Z,75.10
2022-10-17T17:47:52.407Z,75.05
2022-10-17T17:48:55.228Z,75.47
2022-10-17T17:49:57.283Z,75.20
2022-10-17T17:51:03.675Z,75.93
2022-10-17T17:52:05.849Z,76.19
2022-10-17T17:53:08.602Z,75.81
2022-10-17T17:54:11.830Z,75.71
2022-10-17T17:55:14.037Z,75.84
2022-10-17T17:56:17.630Z,75.64
2022-10-17T17:57:19.959Z,75.80
2022-10-17T17:58:21.922Z,76.03
2022-10-17T17:59:25.189Z,76.43
2022-10-17T18:00:27.215Z,76.38
2022-10-17T18:01:30.590Z,76.40
2022-10-17T18:02:32.836Z,76.74
2022-10-17T18:03:34.807Z,76.54
2022-10-17T18:04:36.568Z,76.64
2022-10-17T18:05:40.610Z,76.50
2022-10-17T18:06:43.295Z,76.48
2022-10-17T18:07:45.277Z,76.37
2022-10-17T18:08:48.052Z,76.26
2022-10-17T18:09:51.550Z,76.48
2022-10-17T18:10:57.051Z,76.21
2022-10-17T18:12:00.047Z,76.39
2022-10-17T18:13:02.442Z,76.34
2022-10-17T18:14:06.172Z,76.26
2022-10-17T18:15:08.798Z,75.88
2022-10-17T18:16:14.225Z,76.11
2022-10-17T18:17:16.319Z,76.04
2022-10-17T18:18:18.830Z,76.31
2022-10-17T18:19:21.305Z,76.41
2022-10-17T18:20:23.278Z,76.68
2022-10-17T18:21:25.480Z,77.23
2022-10-17T18:22:28.070Z,77.24
2022-10-17T18:23:30.623Z,76.94
2022-10-17T18:24:32.960Z,76.81
2022-10-17T18:25:35.470Z,76.79
2022-10-17T18:26:37.584Z,76.98
2022-10-17T18:27:39.759Z,77.05
2022-10-17T18:28:43.007Z,77.10
2022-10-17T18:29:48.886Z,77.07
2022-10-17T18:30:51.395Z,77.24
2022-10-17T18:31:53.870Z,77.01
2022-10-17T18:32:56.078Z,77.55
2022-10-17T18:34:00.754Z,77.66
2022-10-17T18:35:03.187Z,77.54
2022-10-17T18:36:07.128Z,77.53
2022-10-17T18:37:09.696Z,77.67
2022-10-17T18:38:12.193Z,77.64
2022-10-17T18:39:14.743Z,77.43
2022-10-17T18:40:16.894Z,77.09
2022-10-17T18:41:20.289Z,77.33
2022-10-17T18:42:22.743Z,77.34
2022-10-17T18:43:24.997Z,77.24
2022-10-17T18:44:28.426Z,77.25
2022-10-17T18:45:30.533Z,77.39
2022-10-17T18:46:36.964Z,77.50
2022-10-17T18:47:39.279Z,77.18
2022-10-17T18:48:46.045Z,77.11
2022-10-17T18:49:48.797Z,77.13
2022-10-17T18:50:50.602Z,77.29
2022-10-17T18:51:53.126Z,77.14
2022-10-17T18:52:55.352Z,77.17
2022-10-17T18:53:59.362Z,77.76
2022-10-17T18:55:01.654Z,78.01
2022-10-17T18:56:03.894Z,77.98
2022-10-17T18:57:09.901Z,77.88
2022-10-17T18:58:12.379Z,78.26
2022-10-17T18:59:14.763Z,78.41
2022-10-17T19:00:18.029Z,78.27
2022-10-17T19:01:21.397Z,78.06
2022-10-17T19:02:24.247Z,78.30
2022-10-17T19:03:26.197Z,78.19
2022-10-17T19:04:28.506Z,78.20
2022-10-17T19:05:30.510Z,78.08
2022-10-17T19:06:32.791Z,78.06
2022-10-17T19:07:35.046Z,77.74
2022-10-17T19:08:37.996Z,77.60
2022-10-17T19:09:39.899Z,77.28
2022-10-17T19:10:42.586Z,77.39
2022-10-17T19:11:44.454Z,77.46
2022-10-17T19:12:46.425Z,77.29
2022-10-17T19:13:48.565Z,77.47
2022-10-17T19:14:51.470Z,77.79
2022-10-17T19:15:53.354Z,77.72